sensor_id;sensor_type;location;lat;lon;timestamp;temperature;humidity
1175;DHT22;576;48.418;10.074;2024-02-23T00:02:30;22.40;58.80
1175;DHT22;576;48.418;10.074;2024-02-23T00:04:58;22.40;58.80
1175;DHT22;576;48.418;10.074;2024-02-23T00:07:26;22.40;58.70
1175;DHT22;576;48.418;10.074;2024-02-23T00:09:55;22.30;58.70
1175;DHT22;576;48.418;10.074;2024-02-23T00:12:24;22.30;58.70
1175;DHT22;576;48.418;10.074;2024-02-23T00:14:52;22.30;58.70
1175;DHT22;576;48.418;10.074;2024-02-23T00:17:21;22.30;58.70
1175;DHT22;576;48.418;10.074;2024-02-23T00:19:50;22.30;58.70
1175;DHT22;576;48.418;10.074;2024-02-23T00:22:19;22.30;58.60
1175;DHT22;576;48.418;10.074;2024-02-23T00:24:48;22.30;58.70
1175;DHT22;576;48.418;10.074;2024-02-23T00:27:16;22.30;58.60
1175;DHT22;576;48.418;10.074;2024-02-23T00:29:45;22.30;58.60
1175;DHT22;576;48.418;10.074;2024-02-23T00:32:14;22.30;58.40
1175;DHT22;576;48.418;10.074;2024-02-23T00:34:43;22.30;58.60
1175;DHT22;576;48.418;10.074;2024-02-23T00:37:11;22.30;58.60
1175;DHT22;576;48.418;10.074;2024-02-23T00:39:39;22.30;58.60
1175;DHT22;576;48.418;10.074;2024-02-23T00:42:07;22.20;58.50
1175;DHT22;576;48.418;10.074;2024-02-23T00:44:36;22.30;58.50
1175;DHT22;576;48.418;10.074;2024-02-23T00:47:06;22.20;58.60
1175;DHT22;576;48.418;10.074;2024-02-23T00:49:34;22.20;58.60
1175;DHT22;576;48.418;10.074;2024-02-23T00:52:02;22.20;58.70
1175;DHT22;576;48.418;10.074;2024-02-23T00:54:31;22.20;58.60
1175;DHT22;576;48.418;10.074;2024-02-23T00:56:59;22.20;58.70
1175;DHT22;576;48.418;10.074;2024-02-23T00:59:27;22.20;58.60
1175;DHT22;576;48.418;10.074;2024-02-23T01:01:56;22.20;58.60
1175;DHT22;576;48.418;10.074;2024-02-23T01:04:25;22.20;58.50
1175;DHT22;576;48.418;10.074;2024-02-23T01:06:53;22.20;58.50
1175;DHT22;576;48.418;10.074;2024-02-23T01:09:22;22.20;58.50
1175;DHT22;576;48.418;10.074;2024-02-23T01:11:50;22.10;58.40
1175;DHT22;576;48.418;10.074;2024-02-23T01:14:18;22.10;58.40
1175;DHT22;576;48.418;10.074;2024-02-23T01:16:46;22.10;58.40
1175;DHT22;576;48.418;10.074;2024-02-23T01:19:15;22.10;58.30
1175;DHT22;576;48.418;10.074;2024-02-23T01:21:45;22.10;58.50
1175;DHT22;576;48.418;10.074;2024-02-23T01:24:13;22.10;58.20
1175;DHT22;576;48.418;10.074;2024-02-23T01:26:41;22.10;58.20
1175;DHT22;576;48.418;10.074;2024-02-23T01:29:09;22.10;58.40
1175;DHT22;576;48.418;10.074;2024-02-23T01:31:38;22.00;58.30
1175;DHT22;576;48.418;10.074;2024-02-23T01:34:06;22.00;58.10
1175;DHT22;576;48.418;10.074;2024-02-23T01:36:34;22.00;58.30
1175;DHT22;576;48.418;10.074;2024-02-23T01:39:04;22.00;58.20
1175;DHT22;576;48.418;10.074;2024-02-23T01:41:33;22.00;58.40
1175;DHT22;576;48.418;10.074;2024-02-23T01:44:02;22.00;58.50
1175;DHT22;576;48.418;10.074;2024-02-23T01:46:30;22.00;58.40
1175;DHT22;576;48.418;10.074;2024-02-23T01:48:59;22.00;58.20
1175;DHT22;576;48.418;10.074;2024-02-23T01:51:27;22.00;58.50
1175;DHT22;576;48.418;10.074;2024-02-23T01:53:56;22.00;58.50
1175;DHT22;576;48.418;10.074;2024-02-23T01:56:25;22.00;58.40
1175;DHT22;576;48.418;10.074;2024-02-23T01:58:55;22.00;58.40
1175;DHT22;576;48.418;10.074;2024-02-23T02:01:23;21.90;58.40
1175;DHT22;576;48.418;10.074;2024-02-23T02:03:52;21.90;58.30
1175;DHT22;576;48.418;10.074;2024-02-23T02:06:20;21.90;58.30
1175;DHT22;576;48.418;10.074;2024-02-23T02:08:48;21.90;58.30
1175;DHT22;576;48.418;10.074;2024-02-23T02:11:17;21.90;58.40
1175;DHT22;576;48.418;10.074;2024-02-23T02:13:46;21.90;58.30
1175;DHT22;576;48.418;10.074;2024-02-23T02:16:15;21.90;58.40
1175;DHT22;576;48.418;10.074;2024-02-23T02:18:43;21.90;58.30
1175;DHT22;576;48.418;10.074;2024-02-23T02:21:12;21.90;58.30
1175;DHT22;576;48.418;10.074;2024-02-23T02:23:41;21.90;58.30
1175;DHT22;576;48.418;10.074;2024-02-23T02:26:10;21.90;58.30
1175;DHT22;576;48.418;10.074;2024-02-23T02:28:38;21.80;58.30
1175;DHT22;576;48.418;10.074;2024-02-23T02:31:07;21.90;58.30
1175;DHT22;576;48.418;10.074;2024-02-23T02:33:36;21.90;58.30
1175;DHT22;576;48.418;10.074;2024-02-23T02:36:04;21.90;58.20
1175;DHT22;576;48.418;10.074;2024-02-23T02:38:33;21.80;58.20
1175;DHT22;576;48.418;10.074;2024-02-23T02:41:01;21.80;58.20
1175;DHT22;576;48.418;10.074;2024-02-23T02:43:30;21.90;58.20
1175;DHT22;576;48.418;10.074;2024-02-23T02:45:58;21.80;58.10
1175;DHT22;576;48.418;10.074;2024-02-23T02:48:28;21.80;58.10
1175;DHT22;576;48.418;10.074;2024-02-23T02:50:56;21.80;58.10
1175;DHT22;576;48.418;10.074;2024-02-23T02:53:24;21.80;58.10
1175;DHT22;576;48.418;10.074;2024-02-23T02:55:53;21.80;58.10
1175;DHT22;576;48.418;10.074;2024-02-23T02:58:21;21.80;58.10
1175;DHT22;576;48.418;10.074;2024-02-23T03:00:49;21.80;58.10
1175;DHT22;576;48.418;10.074;2024-02-23T03:03:17;21.80;58.10
1175;DHT22;576;48.418;10.074;2024-02-23T03:05:47;21.80;58.00
1175;DHT22;576;48.418;10.074;2024-02-23T03:08:15;21.80;58.10
1175;DHT22;576;48.418;10.074;2024-02-23T03:10:44;21.80;58.10
1175;DHT22;576;48.418;10.074;2024-02-23T03:13:12;21.80;58.00
1175;DHT22;576;48.418;10.074;2024-02-23T03:15:40;21.80;58.10
1175;DHT22;576;48.418;10.074;2024-02-23T03:18:08;21.80;58.10
1175;DHT22;576;48.418;10.074;2024-02-23T03:20:37;21.80;58.10
1175;DHT22;576;48.418;10.074;2024-02-23T03:23:07;21.70;58.00
1175;DHT22;576;48.418;10.074;2024-02-23T03:25:35;21.70;58.00
1175;DHT22;576;48.418;10.074;2024-02-23T03:28:04;21.70;58.00
1175;DHT22;576;48.418;10.074;2024-02-23T03:30:32;21.70;58.00
1175;DHT22;576;48.418;10.074;2024-02-23T03:33:03;21.70;58.00
1175;DHT22;576;48.418;10.074;2024-02-23T03:35:32;21.70;58.00
1175;DHT22;576;48.418;10.074;2024-02-23T03:38:00;21.70;58.00
1175;DHT22;576;48.418;10.074;2024-02-23T03:40:30;21.70;58.00
1175;DHT22;576;48.418;10.074;2024-02-23T03:42:59;21.70;58.00
1175;DHT22;576;48.418;10.074;2024-02-23T03:45:27;21.70;57.90
1175;DHT22;576;48.418;10.074;2024-02-23T03:47:56;21.70;58.00
1175;DHT22;576;48.418;10.074;2024-02-23T03:50:24;21.70;57.90
1175;DHT22;576;48.418;10.074;2024-02-23T03:52:52;21.70;57.90
1175;DHT22;576;48.418;10.074;2024-02-23T03:55:20;21.70;57.90
1175;DHT22;576;48.418;10.074;2024-02-23T03:57:50;21.70;57.90
1175;DHT22;576;48.418;10.074;2024-02-23T04:00:19;21.70;57.90
1175;DHT22;576;48.418;10.074;2024-02-23T04:02:49;21.70;57.90
1175;DHT22;576;48.418;10.074;2024-02-23T04:05:23;21.70;58.00
1175;DHT22;576;48.418;10.074;2024-02-23T04:07:51;21.70;58.00
1175;DHT22;576;48.418;10.074;2024-02-23T04:10:20;21.70;58.00
1175;DHT22;576;48.418;10.074;2024-02-23T04:12:49;21.60;58.00
1175;DHT22;576;48.418;10.074;2024-02-23T04:15:17;21.60;58.00
1175;DHT22;576;48.418;10.074;2024-02-23T04:17:46;21.60;58.00
1175;DHT22;576;48.418;10.074;2024-02-23T04:20:14;21.60;58.00
1175;DHT22;576;48.418;10.074;2024-02-23T04:22:42;21.60;58.00
1175;DHT22;576;48.418;10.074;2024-02-23T04:25:10;21.60;58.00
1175;DHT22;576;48.418;10.074;2024-02-23T04:27:39;21.60;58.00
1175;DHT22;576;48.418;10.074;2024-02-23T04:30:10;21.60;58.00
1175;DHT22;576;48.418;10.074;2024-02-23T04:32:39;21.60;57.90
1175;DHT22;576;48.418;10.074;2024-02-23T04:35:08;21.60;57.90
1175;DHT22;576;48.418;10.074;2024-02-23T04:37:36;21.60;57.90
1175;DHT22;576;48.418;10.074;2024-02-23T04:40:05;21.60;57.90
1175;DHT22;576;48.418;10.074;2024-02-23T04:42:33;21.60;57.90
1175;DHT22;576;48.418;10.074;2024-02-23T04:45:02;21.60;57.90
1175;DHT22;576;48.418;10.074;2024-02-23T04:47:32;21.60;57.90
1175;DHT22;576;48.418;10.074;2024-02-23T04:50:00;21.60;57.90
1175;DHT22;576;48.418;10.074;2024-02-23T04:52:30;21.60;57.90
1175;DHT22;576;48.418;10.074;2024-02-23T04:54:58;21.60;58.00
1175;DHT22;576;48.418;10.074;2024-02-23T04:57:26;21.60;58.00
1175;DHT22;576;48.418;10.074;2024-02-23T04:59:54;21.60;58.00
1175;DHT22;576;48.418;10.074;2024-02-23T05:02:23;21.60;58.00
1175;DHT22;576;48.418;10.074;2024-02-23T05:04:52;21.60;58.00
1175;DHT22;576;48.418;10.074;2024-02-23T05:07:21;21.60;57.90
1175;DHT22;576;48.418;10.074;2024-02-23T05:09:49;21.70;57.80
1175;DHT22;576;48.418;10.074;2024-02-23T05:12:17;21.70;57.80
1175;DHT22;576;48.418;10.074;2024-02-23T05:14:45;21.70;57.70
1175;DHT22;576;48.418;10.074;2024-02-23T05:17:13;21.70;57.70
1175;DHT22;576;48.418;10.074;2024-02-23T05:19:42;21.80;57.60
1175;DHT22;576;48.418;10.074;2024-02-23T05:22:11;21.80;57.60
1175;DHT22;576;48.418;10.074;2024-02-23T05:24:40;21.80;57.50
1175;DHT22;576;48.418;10.074;2024-02-23T05:27:08;21.90;57.50
1175;DHT22;576;48.418;10.074;2024-02-23T05:29:36;21.90;57.50
1175;DHT22;576;48.418;10.074;2024-02-23T05:32:05;21.90;57.60
1175;DHT22;576;48.418;10.074;2024-02-23T05:34:33;22.00;57.70
1175;DHT22;576;48.418;10.074;2024-02-23T05:37:02;22.00;57.80
1175;DHT22;576;48.418;10.074;2024-02-23T05:39:32;22.00;57.90
1175;DHT22;576;48.418;10.074;2024-02-23T05:42:00;22.10;57.90
1175;DHT22;576;48.418;10.074;2024-02-23T05:44:28;22.10;57.90
1175;DHT22;576;48.418;10.074;2024-02-23T05:46:57;22.10;57.90
1175;DHT22;576;48.418;10.074;2024-02-23T05:49:25;22.20;57.80
1175;DHT22;576;48.418;10.074;2024-02-23T05:51:53;22.20;57.90
1175;DHT22;576;48.418;10.074;2024-02-23T05:54:22;22.20;57.90
1175;DHT22;576;48.418;10.074;2024-02-23T05:56:51;22.20;57.90
1175;DHT22;576;48.418;10.074;2024-02-23T05:59:19;22.20;58.00
1175;DHT22;576;48.418;10.074;2024-02-23T06:01:48;22.30;58.00
1175;DHT22;576;48.418;10.074;2024-02-23T06:04:16;22.20;58.00
1175;DHT22;576;48.418;10.074;2024-02-23T06:06:44;22.20;58.10
1175;DHT22;576;48.418;10.074;2024-02-23T06:09:13;22.20;58.10
1175;DHT22;576;48.418;10.074;2024-02-23T06:11:42;22.20;58.20
1175;DHT22;576;48.418;10.074;2024-02-23T06:14:12;22.20;58.30
1175;DHT22;576;48.418;10.074;2024-02-23T06:16:40;22.20;58.30
1175;DHT22;576;48.418;10.074;2024-02-23T06:19:08;22.20;58.40
1175;DHT22;576;48.418;10.074;2024-02-23T06:21:37;22.20;58.50
1175;DHT22;576;48.418;10.074;2024-02-23T06:24:05;22.10;58.50
1175;DHT22;576;48.418;10.074;2024-02-23T06:26:35;22.10;58.60
1175;DHT22;576;48.418;10.074;2024-02-23T06:29:03;22.10;58.60
1175;DHT22;576;48.418;10.074;2024-02-23T06:31:34;22.10;58.70
1175;DHT22;576;48.418;10.074;2024-02-23T06:34:02;22.10;58.70
1175;DHT22;576;48.418;10.074;2024-02-23T06:36:31;22.10;58.80
1175;DHT22;576;48.418;10.074;2024-02-23T06:38:59;22.00;58.80
1175;DHT22;576;48.418;10.074;2024-02-23T06:41:27;22.00;58.80
1175;DHT22;576;48.418;10.074;2024-02-23T06:43:55;22.00;58.90
1175;DHT22;576;48.418;10.074;2024-02-23T06:46:24;22.10;58.90
1175;DHT22;576;48.418;10.074;2024-02-23T06:48:53;22.10;58.90
1175;DHT22;576;48.418;10.074;2024-02-23T06:51:22;22.10;58.90
1175;DHT22;576;48.418;10.074;2024-02-23T06:53:51;22.10;58.90
1175;DHT22;576;48.418;10.074;2024-02-23T06:56:19;22.10;58.90
1175;DHT22;576;48.418;10.074;2024-02-23T06:58:47;22.10;58.80
1175;DHT22;576;48.418;10.074;2024-02-23T07:01:15;22.10;58.90
1175;DHT22;576;48.418;10.074;2024-02-23T07:03:44;22.10;58.80
1175;DHT22;576;48.418;10.074;2024-02-23T07:06:13;22.10;58.80
1175;DHT22;576;48.418;10.074;2024-02-23T07:08:45;22.10;58.70
1175;DHT22;576;48.418;10.074;2024-02-23T07:11:14;22.10;58.30
1175;DHT22;576;48.418;10.074;2024-02-23T07:13:43;22.10;58.60
1175;DHT22;576;48.418;10.074;2024-02-23T07:16:11;22.10;58.10
1175;DHT22;576;48.418;10.074;2024-02-23T07:18:40;22.10;58.10
1175;DHT22;576;48.418;10.074;2024-02-23T07:21:09;22.10;58.20
1175;DHT22;576;48.418;10.074;2024-02-23T07:23:38;22.10;58.20
1175;DHT22;576;48.418;10.074;2024-02-23T07:26:06;22.20;58.40
1175;DHT22;576;48.418;10.074;2024-02-23T07:28:35;22.20;58.40
1175;DHT22;576;48.418;10.074;2024-02-23T07:31:03;22.20;58.50
1175;DHT22;576;48.418;10.074;2024-02-23T07:33:32;22.20;58.50
1175;DHT22;576;48.418;10.074;2024-02-23T07:36:00;22.20;58.50
1175;DHT22;576;48.418;10.074;2024-02-23T07:38:29;22.20;58.50
1175;DHT22;576;48.418;10.074;2024-02-23T07:40:58;22.20;58.50
1175;DHT22;576;48.418;10.074;2024-02-23T07:43:27;22.20;58.50
1175;DHT22;576;48.418;10.074;2024-02-23T07:45:56;22.20;58.40
1175;DHT22;576;48.418;10.074;2024-02-23T07:48:24;22.10;58.80
1175;DHT22;576;48.418;10.074;2024-02-23T07:50:53;22.10;59.20
1175;DHT22;576;48.418;10.074;2024-02-23T07:53:21;22.10;59.80
1175;DHT22;576;48.418;10.074;2024-02-23T07:55:49;22.20;60.20
1175;DHT22;576;48.418;10.074;2024-02-23T07:58:19;22.20;60.60
1175;DHT22;576;48.418;10.074;2024-02-23T08:00:48;22.20;60.90
1175;DHT22;576;48.418;10.074;2024-02-23T08:03:16;22.20;61.10
1175;DHT22;576;48.418;10.074;2024-02-23T08:05:44;22.20;61.20
1175;DHT22;576;48.418;10.074;2024-02-23T08:08:13;22.20;61.40
1175;DHT22;576;48.418;10.074;2024-02-23T08:10:41;22.20;61.50
1175;DHT22;576;48.418;10.074;2024-02-23T08:13:10;22.20;61.60
1175;DHT22;576;48.418;10.074;2024-02-23T08:15:40;22.30;61.60
1175;DHT22;576;48.418;10.074;2024-02-23T08:18:08;22.30;61.70
1175;DHT22;576;48.418;10.074;2024-02-23T08:20:37;22.30;61.60
1175;DHT22;576;48.418;10.074;2024-02-23T08:23:05;22.30;61.70
1175;DHT22;576;48.418;10.074;2024-02-23T08:25:34;22.30;61.60
1175;DHT22;576;48.418;10.074;2024-02-23T08:28:02;22.40;61.60
1175;DHT22;576;48.418;10.074;2024-02-23T08:30:30;22.40;61.50
1175;DHT22;576;48.418;10.074;2024-02-23T08:33:00;22.40;61.30
1175;DHT22;576;48.418;10.074;2024-02-23T08:35:28;22.50;61.00
1175;DHT22;576;48.418;10.074;2024-02-23T08:37:57;22.50;61.00
1175;DHT22;576;48.418;10.074;2024-02-23T08:40:25;22.50;61.00
1175;DHT22;576;48.418;10.074;2024-02-23T08:42:53;22.50;60.90
1175;DHT22;576;48.418;10.074;2024-02-23T08:45:21;22.50;60.70
1175;DHT22;576;48.418;10.074;2024-02-23T08:47:50;22.50;60.70
1175;DHT22;576;48.418;10.074;2024-02-23T08:50:19;22.50;60.70
1175;DHT22;576;48.418;10.074;2024-02-23T08:52:48;22.50;60.70
1175;DHT22;576;48.418;10.074;2024-02-23T08:55:16;22.50;60.70
1175;DHT22;576;48.418;10.074;2024-02-23T08:57:44;22.50;60.60
1175;DHT22;576;48.418;10.074;2024-02-23T09:00:13;22.50;60.50
1175;DHT22;576;48.418;10.074;2024-02-23T09:02:44;22.50;60.50
1175;DHT22;576;48.418;10.074;2024-02-23T09:05:13;22.50;60.50
1175;DHT22;576;48.418;10.074;2024-02-23T09:07:43;22.50;60.40
1175;DHT22;576;48.418;10.074;2024-02-23T09:10:12;22.50;60.20
1175;DHT22;576;48.418;10.074;2024-02-23T09:12:41;22.50;60.40
1175;DHT22;576;48.418;10.074;2024-02-23T09:15:09;22.50;60.40
1175;DHT22;576;48.418;10.074;2024-02-23T09:17:40;22.50;60.10
1175;DHT22;576;48.418;10.074;2024-02-23T09:20:10;22.50;60.30
1175;DHT22;576;48.418;10.074;2024-02-23T09:22:38;22.50;60.20
1175;DHT22;576;48.418;10.074;2024-02-23T09:25:08;22.50;60.20
1175;DHT22;576;48.418;10.074;2024-02-23T09:27:37;22.50;60.10
1175;DHT22;576;48.418;10.074;2024-02-23T09:30:12;22.50;60.10
1175;DHT22;576;48.418;10.074;2024-02-23T09:32:41;22.50;60.10
1175;DHT22;576;48.418;10.074;2024-02-23T09:35:11;22.60;60.00
1175;DHT22;576;48.418;10.074;2024-02-23T09:37:39;22.60;60.00
1175;DHT22;576;48.418;10.074;2024-02-23T09:40:10;22.70;59.80
1175;DHT22;576;48.418;10.074;2024-02-23T09:42:39;22.70;59.70
1175;DHT22;576;48.418;10.074;2024-02-23T09:45:08;22.80;59.50
1175;DHT22;576;48.418;10.074;2024-02-23T09:47:39;22.80;59.60
1175;DHT22;576;48.418;10.074;2024-02-23T09:50:10;22.80;59.50
1175;DHT22;576;48.418;10.074;2024-02-23T09:52:38;22.80;59.50
1175;DHT22;576;48.418;10.074;2024-02-23T09:55:08;22.80;59.50
1175;DHT22;576;48.418;10.074;2024-02-23T09:57:37;22.80;59.40
1175;DHT22;576;48.418;10.074;2024-02-23T10:00:07;22.80;59.30
1175;DHT22;576;48.418;10.074;2024-02-23T10:02:39;22.80;59.50
1175;DHT22;576;48.418;10.074;2024-02-23T10:05:10;22.80;59.50
1175;DHT22;576;48.418;10.074;2024-02-23T10:07:39;22.80;59.50
1175;DHT22;576;48.418;10.074;2024-02-23T10:10:09;22.80;59.50
1175;DHT22;576;48.418;10.074;2024-02-23T10:12:38;22.80;59.50
1175;DHT22;576;48.418;10.074;2024-02-23T10:15:07;22.80;59.50
1175;DHT22;576;48.418;10.074;2024-02-23T10:17:36;22.70;59.40
1175;DHT22;576;48.418;10.074;2024-02-23T10:20:05;22.70;59.50
1175;DHT22;576;48.418;10.074;2024-02-23T10:22:33;22.70;59.40
1175;DHT22;576;48.418;10.074;2024-02-23T10:25:03;22.70;59.50
1175;DHT22;576;48.418;10.074;2024-02-23T10:27:33;22.70;59.30
1175;DHT22;576;48.418;10.074;2024-02-23T10:30:01;22.70;59.50
1175;DHT22;576;48.418;10.074;2024-02-23T10:32:30;22.70;59.50
1175;DHT22;576;48.418;10.074;2024-02-23T10:35:00;22.70;59.50
1175;DHT22;576;48.418;10.074;2024-02-23T10:37:31;22.70;59.20
1175;DHT22;576;48.418;10.074;2024-02-23T10:40:01;22.70;59.00
1175;DHT22;576;48.418;10.074;2024-02-23T10:42:35;22.80;59.30
1175;DHT22;576;48.418;10.074;2024-02-23T10:45:05;22.80;59.30
1175;DHT22;576;48.418;10.074;2024-02-23T10:47:35;22.80;58.80
1175;DHT22;576;48.418;10.074;2024-02-23T10:50:06;22.80;58.80
1175;DHT22;576;48.418;10.074;2024-02-23T10:52:35;22.90;59.00
1175;DHT22;576;48.418;10.074;2024-02-23T10:55:04;22.90;59.00
1175;DHT22;576;48.418;10.074;2024-02-23T10:57:36;22.90;58.70
1175;DHT22;576;48.418;10.074;2024-02-23T11:00:06;22.90;58.70
1175;DHT22;576;48.418;10.074;2024-02-23T11:02:40;22.90;58.80
1175;DHT22;576;48.418;10.074;2024-02-23T11:05:09;22.90;58.50
1175;DHT22;576;48.418;10.074;2024-02-23T11:07:40;22.90;58.30
1175;DHT22;576;48.418;10.074;2024-02-23T11:10:08;22.90;58.50
1175;DHT22;576;48.418;10.074;2024-02-23T11:12:43;22.90;58.60
1175;DHT22;576;48.418;10.074;2024-02-23T11:15:25;22.80;58.80
1175;DHT22;576;48.418;10.074;2024-02-23T11:17:54;22.80;58.70
1175;DHT22;576;48.418;10.074;2024-02-23T11:20:23;22.80;58.90
1175;DHT22;576;48.418;10.074;2024-02-23T11:22:56;22.80;58.90
1175;DHT22;576;48.418;10.074;2024-02-23T11:25:27;22.80;58.90
1175;DHT22;576;48.418;10.074;2024-02-23T11:27:57;22.80;58.80
1175;DHT22;576;48.418;10.074;2024-02-23T11:30:26;22.80;58.30
1175;DHT22;576;48.418;10.074;2024-02-23T11:32:58;22.80;58.60
1175;DHT22;576;48.418;10.074;2024-02-23T11:35:27;22.80;58.70
1175;DHT22;576;48.418;10.074;2024-02-23T11:37:56;22.80;58.60
1175;DHT22;576;48.418;10.074;2024-02-23T11:40:27;22.80;58.20
1175;DHT22;576;48.418;10.074;2024-02-23T11:42:57;22.80;58.20
1175;DHT22;576;48.418;10.074;2024-02-23T11:45:28;22.70;58.30
1175;DHT22;576;48.418;10.074;2024-02-23T11:47:57;22.70;58.30
1175;DHT22;576;48.418;10.074;2024-02-23T11:50:27;22.70;58.60
1175;DHT22;576;48.418;10.074;2024-02-23T11:52:55;22.70;58.50
1175;DHT22;576;48.418;10.074;2024-02-23T11:55:23;22.70;58.00
1175;DHT22;576;48.418;10.074;2024-02-23T11:57:52;22.70;58.20
1175;DHT22;576;48.418;10.074;2024-02-23T12:00:35;22.70;58.10
1175;DHT22;576;48.418;10.074;2024-02-23T12:03:04;22.70;58.40
1175;DHT22;576;48.418;10.074;2024-02-23T12:05:32;22.70;58.00
1175;DHT22;576;48.418;10.074;2024-02-23T12:08:01;22.70;58.20
1175;DHT22;576;48.418;10.074;2024-02-23T12:10:30;22.70;58.40
1175;DHT22;576;48.418;10.074;2024-02-23T12:12:59;22.70;58.40
1175;DHT22;576;48.418;10.074;2024-02-23T12:15:27;22.70;58.30
1175;DHT22;576;48.418;10.074;2024-02-23T12:17:59;22.70;57.40
1175;DHT22;576;48.418;10.074;2024-02-23T12:20:28;22.60;57.20
1175;DHT22;576;48.418;10.074;2024-02-23T12:22:57;22.60;57.10
1175;DHT22;576;48.418;10.074;2024-02-23T12:25:25;22.60;57.20
1175;DHT22;576;48.418;10.074;2024-02-23T12:27:54;22.60;57.50
1175;DHT22;576;48.418;10.074;2024-02-23T12:30:23;22.50;57.40
1175;DHT22;576;48.418;10.074;2024-02-23T12:33:04;22.50;57.30
1175;DHT22;576;48.418;10.074;2024-02-23T12:35:34;22.50;57.20
1175;DHT22;576;48.418;10.074;2024-02-23T12:38:03;22.40;57.70
1175;DHT22;576;48.418;10.074;2024-02-23T12:40:31;22.40;57.40
1175;DHT22;576;48.418;10.074;2024-02-23T12:43:00;22.40;57.90
1175;DHT22;576;48.418;10.074;2024-02-23T12:45:28;22.30;57.40
1175;DHT22;576;48.418;10.074;2024-02-23T12:47:56;22.40;57.70
1175;DHT22;576;48.418;10.074;2024-02-23T12:50:30;22.30;58.00
1175;DHT22;576;48.418;10.074;2024-02-23T12:52:58;22.30;57.90
1175;DHT22;576;48.418;10.074;2024-02-23T12:55:27;22.30;57.70
1175;DHT22;576;48.418;10.074;2024-02-23T12:57:56;22.30;57.60
1175;DHT22;576;48.418;10.074;2024-02-23T13:00:24;22.40;57.60
1175;DHT22;576;48.418;10.074;2024-02-23T13:02:52;22.40;57.60
1175;DHT22;576;48.418;10.074;2024-02-23T13:05:20;22.30;57.70
1175;DHT22;576;48.418;10.074;2024-02-23T13:07:50;22.40;57.70
1175;DHT22;576;48.418;10.074;2024-02-23T13:10:18;22.40;58.10
1175;DHT22;576;48.418;10.074;2024-02-23T13:12:47;22.40;58.30
1175;DHT22;576;48.418;10.074;2024-02-23T13:15:16;22.40;58.20
1175;DHT22;576;48.418;10.074;2024-02-23T13:17:48;22.40;58.00
1175;DHT22;576;48.418;10.074;2024-02-23T13:20:17;22.40;58.40
1175;DHT22;576;48.418;10.074;2024-02-23T13:22:48;22.40;58.50
1175;DHT22;576;48.418;10.074;2024-02-23T13:25:18;22.50;58.50
1175;DHT22;576;48.418;10.074;2024-02-23T13:27:46;22.50;58.50
1175;DHT22;576;48.418;10.074;2024-02-23T13:30:14;22.50;58.40
1175;DHT22;576;48.418;10.074;2024-02-23T13:32:43;22.50;58.50
1175;DHT22;576;48.418;10.074;2024-02-23T13:35:11;22.50;58.50
1175;DHT22;576;48.418;10.074;2024-02-23T13:37:41;22.50;58.50
1175;DHT22;576;48.418;10.074;2024-02-23T13:40:10;22.50;58.40
1175;DHT22;576;48.418;10.074;2024-02-23T13:42:40;22.60;58.30
1175;DHT22;576;48.418;10.074;2024-02-23T13:45:09;22.60;58.40
1175;DHT22;576;48.418;10.074;2024-02-23T13:47:41;22.60;58.40
1175;DHT22;576;48.418;10.074;2024-02-23T13:50:10;22.60;58.30
1175;DHT22;576;48.418;10.074;2024-02-23T13:52:39;22.60;58.20
1175;DHT22;576;48.418;10.074;2024-02-23T13:55:07;22.70;57.90
1175;DHT22;576;48.418;10.074;2024-02-23T13:57:36;22.70;58.20
1175;DHT22;576;48.418;10.074;2024-02-23T14:00:07;22.70;58.20
1175;DHT22;576;48.418;10.074;2024-02-23T14:02:40;22.70;58.10
1175;DHT22;576;48.418;10.074;2024-02-23T14:05:08;22.70;58.20
1175;DHT22;576;48.418;10.074;2024-02-23T14:07:36;22.70;58.10
1175;DHT22;576;48.418;10.074;2024-02-23T14:10:06;22.80;57.90
1175;DHT22;576;48.418;10.074;2024-02-23T14:12:34;22.80;57.90
1175;DHT22;576;48.418;10.074;2024-02-23T14:15:03;22.70;57.90
1175;DHT22;576;48.418;10.074;2024-02-23T14:17:34;22.70;57.60
1175;DHT22;576;48.418;10.074;2024-02-23T14:20:03;22.70;57.70
1175;DHT22;576;48.418;10.074;2024-02-23T14:22:31;22.70;57.90
1175;DHT22;576;48.418;10.074;2024-02-23T14:25:00;22.70;58.10
1175;DHT22;576;48.418;10.074;2024-02-23T14:27:28;22.80;58.10
1175;DHT22;576;48.418;10.074;2024-02-23T14:29:58;22.80;58.20
1175;DHT22;576;48.418;10.074;2024-02-23T14:32:26;22.80;58.20
1175;DHT22;576;48.418;10.074;2024-02-23T14:34:56;22.80;58.20
1175;DHT22;576;48.418;10.074;2024-02-23T14:37:25;22.80;58.20
1175;DHT22;576;48.418;10.074;2024-02-23T14:39:53;22.80;58.20
1175;DHT22;576;48.418;10.074;2024-02-23T14:42:21;22.80;58.20
1175;DHT22;576;48.418;10.074;2024-02-23T14:44:50;22.80;58.20
1175;DHT22;576;48.418;10.074;2024-02-23T14:47:18;22.80;58.20
1175;DHT22;576;48.418;10.074;2024-02-23T14:49:59;22.80;58.20
1175;DHT22;576;48.418;10.074;2024-02-23T14:52:28;22.90;58.20
1175;DHT22;576;48.418;10.074;2024-02-23T14:54:56;22.90;58.20
1175;DHT22;576;48.418;10.074;2024-02-23T14:57:24;22.90;58.20
1175;DHT22;576;48.418;10.074;2024-02-23T14:59:52;22.90;58.20
1175;DHT22;576;48.418;10.074;2024-02-23T15:02:21;22.90;58.20
1175;DHT22;576;48.418;10.074;2024-02-23T15:04:50;22.90;58.20
1175;DHT22;576;48.418;10.074;2024-02-23T15:07:20;22.90;58.20
1175;DHT22;576;48.418;10.074;2024-02-23T15:09:48;22.90;58.20
1175;DHT22;576;48.418;10.074;2024-02-23T15:12:17;22.90;58.20
1175;DHT22;576;48.418;10.074;2024-02-23T15:14:45;22.90;58.20
1175;DHT22;576;48.418;10.074;2024-02-23T15:17:13;23.00;58.20
1175;DHT22;576;48.418;10.074;2024-02-23T15:19:42;23.00;58.10
1175;DHT22;576;48.418;10.074;2024-02-23T15:22:10;23.00;58.10
1175;DHT22;576;48.418;10.074;2024-02-23T15:24:42;23.00;58.00
1175;DHT22;576;48.418;10.074;2024-02-23T15:27:12;23.10;58.00
1175;DHT22;576;48.418;10.074;2024-02-23T15:29:40;23.10;57.90
1175;DHT22;576;48.418;10.074;2024-02-23T15:32:10;23.10;57.90
1175;DHT22;576;48.418;10.074;2024-02-23T15:34:38;23.10;57.90
1175;DHT22;576;48.418;10.074;2024-02-23T15:37:07;23.10;58.00
1175;DHT22;576;48.418;10.074;2024-02-23T15:39:35;23.10;58.20
1175;DHT22;576;48.418;10.074;2024-02-23T15:42:05;23.10;58.20
1175;DHT22;576;48.418;10.074;2024-02-23T15:44:35;23.10;58.40
1175;DHT22;576;48.418;10.074;2024-02-23T15:47:03;23.10;58.40
1175;DHT22;576;48.418;10.074;2024-02-23T15:49:32;23.10;58.50
1175;DHT22;576;48.418;10.074;2024-02-23T15:52:20;23.20;58.60
1175;DHT22;576;48.418;10.074;2024-02-23T15:54:49;23.20;58.70
1175;DHT22;576;48.418;10.074;2024-02-23T15:57:18;23.20;58.60
1175;DHT22;576;48.418;10.074;2024-02-23T15:59:47;23.20;58.70
1175;DHT22;576;48.418;10.074;2024-02-23T16:02:30;23.20;58.70
1175;DHT22;576;48.418;10.074;2024-02-23T16:04:59;23.20;58.90
1175;DHT22;576;48.418;10.074;2024-02-23T16:07:27;23.20;58.80
1175;DHT22;576;48.418;10.074;2024-02-23T16:09:56;23.20;58.90
1175;DHT22;576;48.418;10.074;2024-02-23T16:12:26;23.20;59.10
1175;DHT22;576;48.418;10.074;2024-02-23T16:14:54;23.20;59.10